sensor_id;sensor_type;location;lat;lon;timestamp;temperature;humidity
49489;SHT31;35382;51.484;11.476;2022-12-29T00:00:22;7.80;86.71
49489;SHT31;35382;51.484;11.476;2022-12-29T00:02:04;7.83;86.05
49489;SHT31;35382;51.484;11.476;2022-12-29T00:03:45;7.84;86.48
49489;SHT31;35382;51.484;11.476;2022-12-29T00:05:26;7.80;86.70
49489;SHT31;35382;51.484;11.476;2022-12-29T00:07:08;7.79;86.76
49489;SHT31;35382;51.484;11.476;2022-12-29T00:08:49;7.71;87.13
49489;SHT31;35382;51.484;11.476;2022-12-29T00:10:30;7.74;86.94
49489;SHT31;35382;51.484;11.476;2022-12-29T00:12:11;7.97;85.13
49489;SHT31;35382;51.484;11.476;2022-12-29T00:13:53;7.86;86.14
49489;SHT31;35382;51.484;11.476;2022-12-29T00:15:53;7.87;85.75
49489;SHT31;35382;51.484;11.476;2022-12-29T00:17:34;7.91;85.90
49489;SHT31;35382;51.484;11.476;2022-12-29T00:19:15;7.89;86.08
49489;SHT31;35382;51.484;11.476;2022-12-29T00:21:17;7.90;85.93
49489;SHT31;35382;51.484;11.476;2022-12-29T00:23:16;8.00;85.29
49489;SHT31;35382;51.484;11.476;2022-12-29T00:25:16;8.04;85.11
49489;SHT31;35382;51.484;11.476;2022-12-29T00:27:15;8.01;85.25
49489;SHT31;35382;51.484;11.476;2022-12-29T00:29:15;8.01;84.96
49489;SHT31;35382;51.484;11.476;2022-12-29T00:31:15;7.97;85.33
49489;SHT31;35382;51.484;11.476;2022-12-29T00:33:20;7.97;85.39
49489;SHT31;35382;51.484;11.476;2022-12-29T00:37:06;7.91;85.63
49489;SHT31;35382;51.484;11.476;2022-12-29T00:38:52;8.04;84.67
49489;SHT31;35382;51.484;11.476;2022-12-29T00:40:52;8.07;85.07
49489;SHT31;35382;51.484;11.476;2022-12-29T00:42:52;8.04;84.96
49489;SHT31;35382;51.484;11.476;2022-12-29T00:44:51;7.98;85.87
49489;SHT31;35382;51.484;11.476;2022-12-29T00:46:33;7.98;85.66
49489;SHT31;35382;51.484;11.476;2022-12-29T00:48:14;7.93;86.25
49489;SHT31;35382;51.484;11.476;2022-12-29T00:49:55;7.97;85.48
49489;SHT31;35382;51.484;11.476;2022-12-29T00:51:37;7.91;86.20
49489;SHT31;35382;51.484;11.476;2022-12-29T00:53:18;7.86;86.19
49489;SHT31;35382;51.484;11.476;2022-12-29T00:54:59;7.89;86.49
49489;SHT31;35382;51.484;11.476;2022-12-29T00:56:40;7.94;85.79
49489;SHT31;35382;51.484;11.476;2022-12-29T00:58:21;7.95;85.92
49489;SHT31;35382;51.484;11.476;2022-12-29T01:00:02;7.97;85.90
49489;SHT31;35382;51.484;11.476;2022-12-29T01:01:45;8.03;85.44
49489;SHT31;35382;51.484;11.476;2022-12-29T01:03:26;8.04;85.56
49489;SHT31;35382;51.484;11.476;2022-12-29T01:05:08;8.20;84.93
49489;SHT31;35382;51.484;11.476;2022-12-29T01:06:49;8.31;84.31
49489;SHT31;35382;51.484;11.476;2022-12-29T01:08:31;8.26;84.86
49489;SHT31;35382;51.484;11.476;2022-12-29T01:10:12;8.21;85.22
49489;SHT31;35382;51.484;11.476;2022-12-29T01:11:55;8.17;85.29
49489;SHT31;35382;51.484;11.476;2022-12-29T01:13:37;8.14;85.63
49489;SHT31;35382;51.484;11.476;2022-12-29T01:15:19;8.11;86.11
49489;SHT31;35382;51.484;11.476;2022-12-29T01:17:00;8.14;85.75
49489;SHT31;35382;51.484;11.476;2022-12-29T01:18:41;8.13;85.81
49489;SHT31;35382;51.484;11.476;2022-12-29T01:20:22;8.14;85.76
49489;SHT31;35382;51.484;11.476;2022-12-29T01:22:03;8.11;85.81
49489;SHT31;35382;51.484;11.476;2022-12-29T01:23:44;8.08;86.18
49489;SHT31;35382;51.484;11.476;2022-12-29T01:25:25;8.04;86.41
49489;SHT31;35382;51.484;11.476;2022-12-29T01:27:06;8.04;86.39
49489;SHT31;35382;51.484;11.476;2022-12-29T01:28:47;8.11;85.90
49489;SHT31;35382;51.484;11.476;2022-12-29T01:30:28;8.10;86.19
49489;SHT31;35382;51.484;11.476;2022-12-29T01:32:09;7.97;87.24
49489;SHT31;35382;51.484;11.476;2022-12-29T01:33:50;8.04;86.37
49489;SHT31;35382;51.484;11.476;2022-12-29T01:35:32;8.05;86.59
49489;SHT31;35382;51.484;11.476;2022-12-29T01:37:13;8.00;86.96
49489;SHT31;35382;51.484;11.476;2022-12-29T01:38:54;7.95;87.07
49489;SHT31;35382;51.484;11.476;2022-12-29T01:40:43;8.01;86.56
49489;SHT31;35382;51.484;11.476;2022-12-29T01:42:24;8.03;86.91
49489;SHT31;35382;51.484;11.476;2022-12-29T01:44:47;8.01;86.81
49489;SHT31;35382;51.484;11.476;2022-12-29T01:46:42;8.10;86.22
49489;SHT31;35382;51.484;11.476;2022-12-29T01:48:24;8.10;86.64
49489;SHT31;35382;51.484;11.476;2022-12-29T01:50:11;8.11;86.41
49489;SHT31;35382;51.484;11.476;2022-12-29T01:51:58;8.08;86.77
49489;SHT31;35382;51.484;11.476;2022-12-29T01:53:42;8.04;86.92
49489;SHT31;35382;51.484;11.476;2022-12-29T01:55:29;8.05;86.89
49489;SHT31;35382;51.484;11.476;2022-12-29T01:57:16;8.07;86.97
49489;SHT31;35382;51.484;11.476;2022-12-29T01:59:04;8.08;87.03
49489;SHT31;35382;51.484;11.476;2022-12-29T02:00:48;8.04;87.18
49489;SHT31;35382;51.484;11.476;2022-12-29T02:02:29;8.03;87.65
49489;SHT31;35382;51.484;11.476;2022-12-29T02:04:13;8.07;87.14
49489;SHT31;35382;51.484;11.476;2022-12-29T02:07:44;8.11;87.05
49489;SHT31;35382;51.484;11.476;2022-12-29T02:09:27;8.14;86.77
49489;SHT31;35382;51.484;11.476;2022-12-29T02:11:08;8.15;86.77
49489;SHT31;35382;51.484;11.476;2022-12-29T02:12:50;8.24;86.35
49489;SHT31;35382;51.484;11.476;2022-12-29T02:14:32;8.28;86.09
49489;SHT31;35382;51.484;11.476;2022-12-29T02:16:36;8.27;86.36
49489;SHT31;35382;51.484;11.476;2022-12-29T02:18:33;8.21;86.73
49489;SHT31;35382;51.484;11.476;2022-12-29T02:30:40;8.14;87.53
49489;SHT31;35382;51.484;11.476;2022-12-29T02:33:10;8.15;87.25
49489;SHT31;35382;51.484;11.476;2022-12-29T02:34:47;8.10;87.87
49489;SHT31;35382;51.484;11.476;2022-12-29T02:36:53;8.11;87.72
49489;SHT31;35382;51.484;11.476;2022-12-29T02:40:42;8.18;87.53
49489;SHT31;35382;51.484;11.476;2022-12-29T02:42:36;8.18;87.80
49489;SHT31;35382;51.484;11.476;2022-12-29T02:45:02;8.20;87.62
49489;SHT31;35382;51.484;11.476;2022-12-29T02:46:35;8.21;87.61
49489;SHT31;35382;51.484;11.476;2022-12-29T02:48:24;8.13;88.07
49489;SHT31;35382;51.484;11.476;2022-12-29T02:52:11;8.13;88.14
49489;SHT31;35382;51.484;11.476;2022-12-29T02:53:55;8.11;88.27
49489;SHT31;35382;51.484;11.476;2022-12-29T02:55:56;8.07;88.53
49489;SHT31;35382;51.484;11.476;2022-12-29T02:57:37;8.01;88.54
49489;SHT31;35382;51.484;11.476;2022-12-29T02:59:18;8.04;88.65
49489;SHT31;35382;51.484;11.476;2022-12-29T03:09:42;8.10;88.45
49489;SHT31;35382;51.484;11.476;2022-12-29T03:11:29;8.08;88.44
49489;SHT31;35382;51.484;11.476;2022-12-29T03:13:44;8.04;88.88
49489;SHT31;35382;51.484;11.476;2022-12-29T03:15:55;8.14;88.45
49489;SHT31;35382;51.484;11.476;2022-12-29T03:17:56;8.28;87.80
49489;SHT31;35382;51.484;11.476;2022-12-29T03:19:44;8.26;88.02
49489;SHT31;35382;51.484;11.476;2022-12-29T03:21:34;8.27;88.22
49489;SHT31;35382;51.484;11.476;2022-12-29T03:23:37;8.40;87.79
49489;SHT31;35382;51.484;11.476;2022-12-29T03:25:29;8.28;88.66
49489;SHT31;35382;51.484;11.476;2022-12-29T03:27:17;8.31;88.42
49489;SHT31;35382;51.484;11.476;2022-12-29T03:29:00;8.36;88.45
49489;SHT31;35382;51.484;11.476;2022-12-29T03:30:45;8.33;88.81
49489;SHT31;35382;51.484;11.476;2022-12-29T03:32:33;8.36;88.75
49489;SHT31;35382;51.484;11.476;2022-12-29T03:34:18;8.40;88.68
49489;SHT31;35382;51.484;11.476;2022-12-29T03:36:04;8.47;88.70
49489;SHT31;35382;51.484;11.476;2022-12-29T03:37:52;8.54;88.62
49489;SHT31;35382;51.484;11.476;2022-12-29T03:39:36;8.64;88.48
49489;SHT31;35382;51.484;11.476;2022-12-29T03:41:24;8.62;88.78
49489;SHT31;35382;51.484;11.476;2022-12-29T03:43:07;8.62;88.63
49489;SHT31;35382;51.484;11.476;2022-12-29T03:44:53;8.64;88.81
49489;SHT31;35382;51.484;11.476;2022-12-29T03:46:37;8.61;88.96
49489;SHT31;35382;51.484;11.476;2022-12-29T03:48:18;8.71;88.40
49489;SHT31;35382;51.484;11.476;2022-12-29T03:50:00;8.65;88.90
49489;SHT31;35382;51.484;11.476;2022-12-29T03:51:42;8.69;88.69
49489;SHT31;35382;51.484;11.476;2022-12-29T03:53:23;8.65;88.83
49489;SHT31;35382;51.484;11.476;2022-12-29T03:55:04;8.75;88.43
49489;SHT31;35382;51.484;11.476;2022-12-29T03:56:46;8.67;88.89
49489;SHT31;35382;51.484;11.476;2022-12-29T03:58:34;8.71;88.78
49489;SHT31;35382;51.484;11.476;2022-12-29T04:00:21;8.73;88.71
49489;SHT31;35382;51.484;11.476;2022-12-29T04:02:04;8.69;88.91
49489;SHT31;35382;51.484;11.476;2022-12-29T04:03:46;8.73;88.78
49489;SHT31;35382;51.484;11.476;2022-12-29T04:05:27;8.79;88.54
49489;SHT31;35382;51.484;11.476;2022-12-29T04:07:09;8.91;87.97
49489;SHT31;35382;51.484;11.476;2022-12-29T04:08:50;8.89;88.17
49489;SHT31;35382;51.484;11.476;2022-12-29T04:10:32;8.86;88.18
49489;SHT31;35382;51.484;11.476;2022-12-29T04:12:16;8.85;88.39
49489;SHT31;35382;51.484;11.476;2022-12-29T04:13:57;8.89;88.27
49489;SHT31;35382;51.484;11.476;2022-12-29T04:15:40;8.92;87.86
49489;SHT31;35382;51.484;11.476;2022-12-29T04:17:23;8.81;88.30
49489;SHT31;35382;51.484;11.476;2022-12-29T04:19:07;8.76;88.61
49489;SHT31;35382;51.484;11.476;2022-12-29T04:20:49;8.68;88.71
49489;SHT31;35382;51.484;11.476;2022-12-29T04:22:45;8.49;89.08
49489;SHT31;35382;51.484;11.476;2022-12-29T04:24:29;8.60;88.80
49489;SHT31;35382;51.484;11.476;2022-12-29T04:26:10;8.54;88.96
49489;SHT31;35382;51.484;11.476;2022-12-29T04:28:04;8.49;89.06
49489;SHT31;35382;51.484;11.476;2022-12-29T04:30:18;8.38;89.36
49489;SHT31;35382;51.484;11.476;2022-12-29T04:32:16;8.27;89.79
49489;SHT31;35382;51.484;11.476;2022-12-29T04:34:02;8.30;89.85
49489;SHT31;35382;51.484;11.476;2022-12-29T04:35:43;8.36;89.90
49489;SHT31;35382;51.484;11.476;2022-12-29T04:37:26;8.40;89.83
49489;SHT31;35382;51.484;11.476;2022-12-29T04:39:08;8.42;89.53
49489;SHT31;35382;51.484;11.476;2022-12-29T04:40:50;8.26;90.20
49489;SHT31;35382;51.484;11.476;2022-12-29T04:42:33;8.17;90.44
49489;SHT31;35382;51.484;11.476;2022-12-29T04:44:14;8.21;90.41
49489;SHT31;35382;51.484;11.476;2022-12-29T04:46:07;8.21;90.54
49489;SHT31;35382;51.484;11.476;2022-12-29T04:48:03;8.31;90.36
49489;SHT31;35382;51.484;11.476;2022-12-29T04:50:04;8.37;90.17
49489;SHT31;35382;51.484;11.476;2022-12-29T04:51:57;8.37;90.23
49489;SHT31;35382;51.484;11.476;2022-12-29T04:53:39;8.37;90.46
49489;SHT31;35382;51.484;11.476;2022-12-29T04:55:20;8.41;90.43
49489;SHT31;35382;51.484;11.476;2022-12-29T04:57:01;8.47;90.23
49489;SHT31;35382;51.484;11.476;2022-12-29T04:58:42;8.45;90.41
49489;SHT31;35382;51.484;11.476;2022-12-29T05:00:23;8.48;90.39
49489;SHT31;35382;51.484;11.476;2022-12-29T05:02:05;8.54;90.16
49489;SHT31;35382;51.484;11.476;2022-12-29T05:03:50;8.55;90.19
49489;SHT31;35382;51.484;11.476;2022-12-29T05:05:32;8.52;90.44
49489;SHT31;35382;51.484;11.476;2022-12-29T05:07:15;8.58;90.09
49489;SHT31;35382;51.484;11.476;2022-12-29T05:08:58;8.68;89.72
49489;SHT31;35382;51.484;11.476;2022-12-29T05:10:39;8.62;90.02
49489;SHT31;35382;51.484;11.476;2022-12-29T05:12:25;8.65;89.85
49489;SHT31;35382;51.484;11.476;2022-12-29T05:14:13;8.55;90.42
49489;SHT31;35382;51.484;11.476;2022-12-29T05:15:54;8.62;90.06
49489;SHT31;35382;51.484;11.476;2022-12-29T05:17:37;8.57;90.35
49489;SHT31;35382;51.484;11.476;2022-12-29T05:19:18;8.61;90.07
49489;SHT31;35382;51.484;11.476;2022-12-29T05:21:00;8.61;90.23
49489;SHT31;35382;51.484;11.476;2022-12-29T05:22:42;8.68;89.76
49489;SHT31;35382;51.484;11.476;2022-12-29T05:24:23;8.68;89.93
49489;SHT31;35382;51.484;11.476;2022-12-29T05:26:07;8.75;89.69
49489;SHT31;35382;51.484;11.476;2022-12-29T05:28:00;8.78;89.68
49489;SHT31;35382;51.484;11.476;2022-12-29T05:30:03;8.85;89.31
49489;SHT31;35382;51.484;11.476;2022-12-29T05:31:44;8.76;89.59
49489;SHT31;35382;51.484;11.476;2022-12-29T05:33:26;8.78;89.67
49489;SHT31;35382;51.484;11.476;2022-12-29T05:35:07;8.79;89.36
49489;SHT31;35382;51.484;11.476;2022-12-29T05:36:49;8.73;89.47
49489;SHT31;35382;51.484;11.476;2022-12-29T05:38:30;8.68;89.52
49489;SHT31;35382;51.484;11.476;2022-12-29T05:40:11;8.54;89.83
49489;SHT31;35382;51.484;11.476;2022-12-29T05:41:52;8.61;89.99
49489;SHT31;35382;51.484;11.476;2022-12-29T05:43:45;8.73;89.56
49489;SHT31;35382;51.484;11.476;2022-12-29T05:45:49;8.78;89.55
49489;SHT31;35382;51.484;11.476;2022-12-29T05:47:43;8.85;89.21
49489;SHT31;35382;51.484;11.476;2022-12-29T05:49:47;8.81;89.45
49489;SHT31;35382;51.484;11.476;2022-12-29T05:51:44;8.85;89.29
49489;SHT31;35382;51.484;11.476;2022-12-29T05:53:25;8.85;89.28
49489;SHT31;35382;51.484;11.476;2022-12-29T05:55:06;8.88;89.18
49489;SHT31;35382;51.484;11.476;2022-12-29T05:56:50;8.79;89.68
49489;SHT31;35382;51.484;11.476;2022-12-29T05:58:31;8.85;89.42
49489;SHT31;35382;51.484;11.476;2022-12-29T06:00:13;8.86;89.41
49489;SHT31;35382;51.484;11.476;2022-12-29T06:01:59;8.85;89.58
49489;SHT31;35382;51.484;11.476;2022-12-29T06:03:40;8.89;89.45
49489;SHT31;35382;51.484;11.476;2022-12-29T06:05:22;8.95;89.14
49489;SHT31;35382;51.484;11.476;2022-12-29T06:07:03;8.99;89.00
49489;SHT31;35382;51.484;11.476;2022-12-29T06:08:59;9.01;88.91
49489;SHT31;35382;51.484;11.476;2022-12-29T06:10:40;9.02;88.87
49489;SHT31;35382;51.484;11.476;2022-12-29T06:12:22;9.06;88.70
49489;SHT31;35382;51.484;11.476;2022-12-29T06:14:05;9.11;88.37
49489;SHT31;35382;51.484;11.476;2022-12-29T06:15:49;9.14;88.54
49489;SHT31;35382;51.484;11.476;2022-12-29T06:17:30;9.06;88.89
49489;SHT31;35382;51.484;11.476;2022-12-29T06:19:12;9.09;88.66
49489;SHT31;35382;51.484;11.476;2022-12-29T06:20:53;9.08;88.77
49489;SHT31;35382;51.484;11.476;2022-12-29T06:22:34;9.11;88.57
49489;SHT31;35382;51.484;11.476;2022-12-29T06:24:16;9.11;88.81
49489;SHT31;35382;51.484;11.476;2022-12-29T06:25:57;9.14;88.50
49489;SHT31;35382;51.484;11.476;2022-12-29T06:27:38;9.19;87.94
49489;SHT31;35382;51.484;11.476;2022-12-29T06:29:20;9.14;88.42
49489;SHT31;35382;51.484;11.476;2022-12-29T06:31:01;9.09;88.51
49489;SHT31;35382;51.484;11.476;2022-12-29T06:32:44;9.04;88.99
49489;SHT31;35382;51.484;11.476;2022-12-29T06:34:27;8.99;89.02
49489;SHT31;35382;51.484;11.476;2022-12-29T06:36:08;9.01;88.99
49489;SHT31;35382;51.484;11.476;2022-12-29T06:37:49;9.15;88.54
49489;SHT31;35382;51.484;11.476;2022-12-29T06:39:30;9.08;88.90
49489;SHT31;35382;51.484;11.476;2022-12-29T06:41:20;9.09;88.91
49489;SHT31;35382;51.484;11.476;2022-12-29T06:43:24;9.05;89.10
49489;SHT31;35382;51.484;11.476;2022-12-29T06:45:24;9.09;88.99
49489;SHT31;35382;51.484;11.476;2022-12-29T06:47:05;9.12;88.83
49489;SHT31;35382;51.484;11.476;2022-12-29T06:48:46;9.05;89.25
49489;SHT31;35382;51.484;11.476;2022-12-29T06:50:27;9.08;89.07
49489;SHT31;35382;51.484;11.476;2022-12-29T06:52:08;9.08;89.13
49489;SHT31;35382;51.484;11.476;2022-12-29T06:53:49;9.11;88.94
49489;SHT31;35382;51.484;11.476;2022-12-29T06:55:30;9.11;89.10
49489;SHT31;35382;51.484;11.476;2022-12-29T06:57:11;9.08;89.25
49489;SHT31;35382;51.484;11.476;2022-12-29T06:58:52;9.02;89.53
49489;SHT31;35382;51.484;11.476;2022-12-29T07:00:34;9.02;89.53
49489;SHT31;35382;51.484;11.476;2022-12-29T07:02:15;9.09;89.14
49489;SHT31;35382;51.484;11.476;2022-12-29T07:03:58;9.28;88.45
49489;SHT31;35382;51.484;11.476;2022-12-29T07:05:40;9.28;88.42
49489;SHT31;35382;51.484;11.476;2022-12-29T07:07:21;9.25;88.52
49489;SHT31;35382;51.484;11.476;2022-12-29T07:09:02;9.32;88.24
49489;SHT31;35382;51.484;11.476;2022-12-29T07:10:43;9.22;88.52
49489;SHT31;35382;51.484;11.476;2022-12-29T07:12:24;9.20;88.26
49489;SHT31;35382;51.484;11.476;2022-12-29T07:14:05;9.08;88.92
49489;SHT31;35382;51.484;11.476;2022-12-29T07:15:46;9.01;89.30
49489;SHT31;35382;51.484;11.476;2022-12-29T07:17:27;8.98;89.18
49489;SHT31;35382;51.484;11.476;2022-12-29T07:19:08;8.85;89.48
49489;SHT31;35382;51.484;11.476;2022-12-29T07:20:49;8.82;89.49
49489;SHT31;35382;51.484;11.476;2022-12-29T07:22:30;8.95;89.02
49489;SHT31;35382;51.484;11.476;2022-12-29T07:24:11;9.04;88.53
49489;SHT31;35382;51.484;11.476;2022-12-29T07:26:00;8.83;89.09
49489;SHT31;35382;51.484;11.476;2022-12-29T07:27:41;8.85;89.24
49489;SHT31;35382;51.484;11.476;2022-12-29T07:29:22;8.95;88.77
49489;SHT31;35382;51.484;11.476;2022-12-29T07:31:05;9.09;88.36
49489;SHT31;35382;51.484;11.476;2022-12-29T07:32:46;9.06;88.44
49489;SHT31;35382;51.484;11.476;2022-12-29T07:34:27;9.01;88.76
49489;SHT31;35382;51.484;11.476;2022-12-29T07:36:09;8.93;89.10
49489;SHT31;35382;51.484;11.476;2022-12-29T07:37:50;9.11;88.45
49489;SHT31;35382;51.484;11.476;2022-12-29T07:39:31;9.15;88.35
49489;SHT31;35382;51.484;11.476;2022-12-29T07:41:12;9.16;88.53
49489;SHT31;35382;51.484;11.476;2022-12-29T07:42:53;9.18;88.51
49489;SHT31;35382;51.484;11.476;2022-12-29T07:44:44;9.16;88.51
49489;SHT31;35382;51.484;11.476;2022-12-29T07:46:33;9.12;88.56
49489;SHT31;35382;51.484;11.476;2022-12-29T07:48:14;9.14;88.77
49489;SHT31;35382;51.484;11.476;2022-12-29T07:49:55;9.09;88.92
49489;SHT31;35382;51.484;11.476;2022-12-29T07:51:36;9.09;89.19
49489;SHT31;35382;51.484;11.476;2022-12-29T07:53:18;9.12;89.02
49489;SHT31;35382;51.484;11.476;2022-12-29T07:54:59;9.16;89.07
49489;SHT31;35382;51.484;11.476;2022-12-29T07:56:40;9.11;89.38
49489;SHT31;35382;51.484;11.476;2022-12-29T07:58:21;9.15;89.46
49489;SHT31;35382;51.484;11.476;2022-12-29T08:00:03;9.29;88.97
49489;SHT31;35382;51.484;11.476;2022-12-29T08:01:53;9.40;88.50
49489;SHT31;35382;51.484;11.476;2022-12-29T08:03:34;9.43;88.29
49489;SHT31;35382;51.484;11.476;2022-12-29T08:05:15;9.49;88.21
49489;SHT31;35382;51.484;11.476;2022-12-29T08:06:56;9.46;88.37
49489;SHT31;35382;51.484;11.476;2022-12-29T08:08:37;9.59;87.83
49489;SHT31;35382;51.484;11.476;2022-12-29T08:10:19;9.62;87.85
49489;SHT31;35382;51.484;11.476;2022-12-29T08:12:00;9.62;87.76
49489;SHT31;35382;51.484;11.476;2022-12-29T08:13:41;9.67;87.50
49489;SHT31;35382;51.484;11.476;2022-12-29T08:15:22;9.69;87.60
49489;SHT31;35382;51.484;11.476;2022-12-29T08:17:04;9.70;87.62
49489;SHT31;35382;51.484;11.476;2022-12-29T08:18:45;9.73;87.51
49489;SHT31;35382;51.484;11.476;2022-12-29T08:20:26;9.76;87.24
49489;SHT31;35382;51.484;11.476;2022-12-29T08:22:07;9.83;87.12
49489;SHT31;35382;51.484;11.476;2022-12-29T08:23:48;9.80;87.14
49489;SHT31;35382;51.484;11.476;2022-12-29T08:25:29;9.89;86.79
49489;SHT31;35382;51.484;11.476;2022-12-29T08:27:10;9.83;87.20
49489;SHT31;35382;51.484;11.476;2022-12-29T08:28:52;9.87;87.24
49489;SHT31;35382;51.484;11.476;2022-12-29T08:30:35;9.82;87.31
49489;SHT31;35382;51.484;11.476;2022-12-29T08:32:17;9.86;87.28
49489;SHT31;35382;51.484;11.476;2022-12-29T08:33:59;9.93;86.92
49489;SHT31;35382;51.484;11.476;2022-12-29T08:35:40;9.94;86.72
49489;SHT31;35382;51.484;11.476;2022-12-29T08:37:22;9.98;86.45
49489;SHT31;35382;51.484;11.476;2022-12-29T08:39:03;9.91;87.05
49489;SHT31;35382;51.484;11.476;2022-12-29T08:40:44;9.87;87.28
49489;SHT31;35382;51.484;11.476;2022-12-29T08:42:25;9.93;86.73
49489;SHT31;35382;51.484;11.476;2022-12-29T08:44:11;9.93;86.90
49489;SHT31;35382;51.484;11.476;2022-12-29T08:45:52;9.98;86.66
49489;SHT31;35382;51.484;11.476;2022-12-29T08:47:34;9.97;86.94
49489;SHT31;35382;51.484;11.476;2022-12-29T08:49:15;10.01;86.52
49489;SHT31;35382;51.484;11.476;2022-12-29T08:50:56;9.98;86.99
49489;SHT31;35382;51.484;11.476;2022-12-29T08:52:37;9.94;87.31
49489;SHT31;35382;51.484;11.476;2022-12-29T08:54:18;10.01;86.71
49489;SHT31;35382;51.484;11.476;2022-12-29T08:56:00;10.01;87.01
49489;SHT31;35382;51.484;11.476;2022-12-29T08:57:42;10.01;86.94
49489;SHT31;35382;51.484;11.476;2022-12-29T08:59:39;10.13;86.46
49489;SHT31;35382;51.484;11.476;2022-12-29T09:01:24;10.14;86.43
49489;SHT31;35382;51.484;11.476;2022-12-29T09:03:05;10.21;86.25
49489;SHT31;35382;51.484;11.476;2022-12-29T09:04:46;10.22;86.31
49489;SHT31;35382;51.484;11.476;2022-12-29T09:06:27;10.25;86.09
49489;SHT31;35382;51.484;11.476;2022-12-29T09:08:09;10.27;86.11
49489;SHT31;35382;51.484;11.476;2022-12-29T09:09:50;10.37;85.20
49489;SHT31;35382;51.484;11.476;2022-12-29T09:11:31;10.41;85.38
49489;SHT31;35382;51.484;11.476;2022-12-29T09:13:13;10.33;85.89
49489;SHT31;35382;51.484;11.476;2022-12-29T09:14:55;10.36;85.75
49489;SHT31;35382;51.484;11.476;2022-12-29T09:16:36;10.33;85.92
49489;SHT31;35382;51.484;11.476;2022-12-29T09:18:17;10.27;86.21
49489;SHT31;35382;51.484;11.476;2022-12-29T09:19:58;10.30;86.30
49489;SHT31;35382;51.484;11.476;2022-12-29T09:21:39;10.25;86.52
49489;SHT31;35382;51.484;11.476;2022-12-29T09:23:20;10.24;86.55
49489;SHT31;35382;51.484;11.476;2022-12-29T09:25:01;10.18;86.94
49489;SHT31;35382;51.484;11.476;2022-12-29T09:26:43;10.21;86.29
49489;SHT31;35382;51.484;11.476;2022-12-29T09:28:24;10.28;86.49
49489;SHT31;35382;51.484;11.476;2022-12-29T09:30:08;10.20;86.83
49489;SHT31;35382;51.484;11.476;2022-12-29T09:31:50;10.25;86.49
49489;SHT31;35382;51.484;11.476;2022-12-29T09:33:31;10.27;86.31
49489;SHT31;35382;51.484;11.476;2022-12-29T09:35:15;10.22;86.79
49489;SHT31;35382;51.484;11.476;2022-12-29T09:36:57;10.22;86.97
49489;SHT31;35382;51.484;11.476;2022-12-29T09:38:38;10.20;86.97
49489;SHT31;35382;51.484;11.476;2022-12-29T09:40:30;10.21;87.00
49489;SHT31;35382;51.484;11.476;2022-12-29T09:46:46;10.22;86.54
49489;SHT31;35382;51.484;11.476;2022-12-29T09:48:35;10.14;87.34
49489;SHT31;35382;51.484;11.476;2022-12-29T09:50:29;10.14;87.17
49489;SHT31;35382;51.484;11.476;2022-12-29T09:52:23;10.11;87.49
49489;SHT31;35382;51.484;11.476;2022-12-29T09:54:23;10.21;86.76
49489;SHT31;35382;51.484;11.476;2022-12-29T09:56:13;10.25;86.53
49489;SHT31;35382;51.484;11.476;2022-12-29T09:58:04;10.30;86.21
49489;SHT31;35382;51.484;11.476;2022-12-29T09:59:48;10.24;86.83
49489;SHT31;35382;51.484;11.476;2022-12-29T10:01:41;10.17;87.06
49489;SHT31;35382;51.484;11.476;2022-12-29T10:05:35;10.25;86.65
49489;SHT31;35382;51.484;11.476;2022-12-29T10:07:29;10.41;85.99
49489;SHT31;35382;51.484;11.476;2022-12-29T10:11:35;10.34;86.31
49489;SHT31;35382;51.484;11.476;2022-12-29T10:17:48;10.40;86.56
49489;SHT31;35382;51.484;11.476;2022-12-29T10:20:23;10.42;86.74
49489;SHT31;35382;51.484;11.476;2022-12-29T10:22:08;10.34;87.22
49489;SHT31;35382;51.484;11.476;2022-12-29T10:23:53;10.42;86.68
49489;SHT31;35382;51.484;11.476;2022-12-29T10:25:38;10.44;87.22
49489;SHT31;35382;51.484;11.476;2022-12-29T10:27:19;10.38;87.81
49489;SHT31;35382;51.484;11.476;2022-12-29T10:29:15;10.31;88.14
49489;SHT31;35382;51.484;11.476;2022-12-29T10:30:59;10.34;88.15
49489;SHT31;35382;51.484;11.476;2022-12-29T10:32:52;10.48;87.93
49489;SHT31;35382;51.484;11.476;2022-12-29T10:34:41;10.33;88.63
49489;SHT31;35382;51.484;11.476;2022-12-29T10:38:27;10.16;90.91
49489;SHT31;35382;51.484;11.476;2022-12-29T10:40:25;10.18;90.41
49489;SHT31;35382;51.484;11.476;2022-12-29T10:42:43;10.24;90.19
49489;SHT31;35382;51.484;11.476;2022-12-29T10:44:29;10.20;90.56
49489;SHT31;35382;51.484;11.476;2022-12-29T10:46:23;10.21;90.06
49489;SHT31;35382;51.484;11.476;2022-12-29T10:48:11;10.17;90.47
49489;SHT31;35382;51.484;11.476;2022-12-29T10:49:55;10.21;90.93
49489;SHT31;35382;51.484;11.476;2022-12-29T10:51:42;10.30;90.61
49489;SHT31;35382;51.484;11.476;2022-12-29T10:53:28;10.37;90.72
49489;SHT31;35382;51.484;11.476;2022-12-29T10:55:24;10.57;90.12
49489;SHT31;35382;51.484;11.476;2022-12-29T10:58:59;10.84;90.09
49489;SHT31;35382;51.484;11.476;2022-12-29T11:00:43;10.92;89.70
49489;SHT31;35382;51.484;11.476;2022-12-29T11:03:21;10.86;90.30
49489;SHT31;35382;51.484;11.476;2022-12-29T11:06:56;10.72;89.29
49489;SHT31;35382;51.484;11.476;2022-12-29T11:09:01;10.94;88.62
49489;SHT31;35382;51.484;11.476;2022-12-29T11:10:45;10.89;89.00
49489;SHT31;35382;51.484;11.476;2022-12-29T11:12:29;10.84;88.05
49489;SHT31;35382;51.484;11.476;2022-12-29T11:14:13;10.75;87.88
49489;SHT31;35382;51.484;11.476;2022-12-29T11:15:55;10.71;88.68
49489;SHT31;35382;51.484;11.476;2022-12-29T11:19:27;10.85;86.63
49489;SHT31;35382;51.484;11.476;2022-12-29T11:21:31;10.82;86.58
49489;SHT31;35382;51.484;11.476;2022-12-29T11:23:33;10.78;87.46
49489;SHT31;35382;51.484;11.476;2022-12-29T11:25:15;10.81;86.73
49489;SHT31;35382;51.484;11.476;2022-12-29T11:27:16;10.85;86.36
49489;SHT31;35382;51.484;11.476;2022-12-29T11:31:00;11.11;85.93
49489;SHT31;35382;51.484;11.476;2022-12-29T11:32:51;11.32;85.38
49489;SHT31;35382;51.484;11.476;2022-12-29T11:34:34;11.38;85.35
49489;SHT31;35382;51.484;11.476;2022-12-29T11:36:20;11.39;84.68
49489;SHT31;35382;51.484;11.476;2022-12-29T11:38:02;11.49;85.02
49489;SHT31;35382;51.484;11.476;2022-12-29T11:41:40;11.35;85.69
49489;SHT31;35382;51.484;11.476;2022-12-29T11:43:32;11.28;84.91
49489;SHT31;35382;51.484;11.476;2022-12-29T11:45:19;11.22;85.53
49489;SHT31;35382;51.484;11.476;2022-12-29T11:47:01;11.15;85.00
49489;SHT31;35382;51.484;11.476;2022-12-29T11:48:42;11.19;84.42
49489;SHT31;35382;51.484;11.476;2022-12-29T11:50:29;11.18;85.47
49489;SHT31;35382;51.484;11.476;2022-12-29T11:52:12;11.19;84.67
49489;SHT31;35382;51.484;11.476;2022-12-29T11:53:57;11.15;84.48
49489;SHT31;35382;51.484;11.476;2022-12-29T11:55:39;11.15;83.78
49489;SHT31;35382;51.484;11.476;2022-12-29T11:57:22;11.06;83.90